LTBR Airport Information

Runway Information
Runway 07L Length 9818 ft width 148 ft
Elevation 763 ft Threshold 0 ft Heading 75
Runway 25R Length 9818 ft Width 148 ft
Elevation 749 ft Threshold 0 ft Heading 255
Runway 07R Length 9818 ft width 98 ft
Elevation 764 ft Threshold 0 ft Heading 75
Runway 25L Length 9818 ft Width 98 ft
Elevation 755 ft Threshold 0 ft Heading 255
Airport Frequencies
Type APP Name APP Frequency 120.325 MHZ
Type GND Name GND Frequency 121.95 MHZ
Type TWR Name TWR/APP Frequency 122.1 MHZ
Airport Navaids
Type VOR-DME Name Yenisehir Frequency 115300 KHZ
Type NDB Name Yenisehir Frequency 352 KHZ
Type TACAN Name Yenisehir Frequency 113200 KHZ
Airport Weather Information & NOTAM
ADDS - METARS form results

(1953 UTC 16 July 2018)
 
METAR text: LTBR 161920Z VRB01KT CAVOK 21/16 Q1012 NOSIG RMK RWY07 VRB03KT
Conditions at: LTBR (YENISEHIR AB , TR) observed 1920 UTC 16 July 2018
Temperature: 21.0°C (70°F)
Dewpoint: 16.0°C (61°F) [RH = 73%]
Pressure (altimeter): 29.88 inches Hg (1012.0 mb)
Winds: variable direction winds at 1 MPH (1 knots; 0.5 m/s)
Visibility: 6 or more miles (10+ km)
Ceiling: ceiling and visibility are OK
Clouds: unknown
Weather: no significant weather observed at this time